createdAt,value
2023-05-19T00:01:50.696Z,17.40
2023-05-19T00:08:55.122Z,17.30
2023-05-19T00:12:23.572Z,17.30
2023-05-19T00:16:19.012Z,17.50
2023-05-19T00:19:44.857Z,17.20
2023-05-19T00:29:48.151Z,17.10
2023-05-19T00:54:32.786Z,16.90
2023-05-19T01:09:21.130Z,16.20
2023-05-19T01:16:27.643Z,16.40
2023-05-19T01:24:32.599Z,16.30
2023-05-19T01:28:30.508Z,16.20
2023-05-19T01:31:34.176Z,16.10
2023-05-19T01:34:43.372Z,16.00
2023-05-19T01:38:14.531Z,16.00
2023-05-19T01:45:03.214Z,15.90
2023-05-19T01:52:38.891Z,15.70
2023-05-19T01:56:56.292Z,15.70
2023-05-19T02:05:13.295Z,15.60
2023-05-19T02:16:15.180Z,15.60
2023-05-19T02:20:15.039Z,15.50
2023-05-19T02:23:43.241Z,15.40
2023-05-19T02:31:47.811Z,15.40
2023-05-19T02:35:15.136Z,15.20
2023-05-19T02:54:48.391Z,15.20
2023-05-19T03:00:59.241Z,15.00
2023-05-19T03:04:12.746Z,15.00
2023-05-19T03:07:25.575Z,14.90
2023-05-19T03:13:57.878Z,14.90
2023-05-19T03:28:07.814Z,15.10
2023-05-19T03:39:08.949Z,14.70
2023-05-19T03:42:33.462Z,14.70
2023-05-19T04:00:27.309Z,14.60
2023-05-19T04:11:40.435Z,14.50
2023-05-19T04:14:50.756Z,14.50
2023-05-19T04:22:35.591Z,14.70
2023-05-19T04:26:28.013Z,14.50
2023-05-19T04:29:58.277Z,14.00
2023-05-19T04:44:17.299Z,14.50
2023-05-19T04:48:00.791Z,14.40
2023-05-19T04:54:47.883Z,14.40
2023-05-19T05:01:18.300Z,14.40
2023-05-19T05:04:55.421Z,14.40
2023-05-19T05:11:32.981Z,14.50
2023-05-19T05:14:59.243Z,14.50
2023-05-19T05:18:45.422Z,14.50
2023-05-19T05:22:24.287Z,14.50
2023-05-19T05:25:51.164Z,14.50
2023-05-19T05:28:34.640Z,14.50
2023-05-19T05:31:21.178Z,14.50
2023-05-19T05:34:17.798Z,14.50
2023-05-19T05:37:46.552Z,14.50
2023-05-19T05:40:34.706Z,14.40
2023-05-19T05:43:31.177Z,14.50
2023-05-19T05:46:28.975Z,14.50
2023-05-19T05:50:01.626Z,14.60
2023-05-19T05:59:11.985Z,14.70
2023-05-19T06:02:08.660Z,14.60
2023-05-19T06:09:18.247Z,14.70
2023-05-19T06:16:37.034Z,14.70
2023-05-19T06:19:48.925Z,14.80
2023-05-19T06:26:36.456Z,15.10
2023-05-19T06:33:26.673Z,15.00
2023-05-19T06:36:18.202Z,15.00
2023-05-19T06:46:15.700Z,15.30
2023-05-19T06:54:56.995Z,15.40
2023-05-19T07:01:38.390Z,15.50
2023-05-19T07:12:06.475Z,15.60
2023-05-19T07:18:36.656Z,15.40
2023-05-19T07:28:43.397Z,15.90
2023-05-19T07:38:21.003Z,16.10
2023-05-19T07:41:34.482Z,16.20
2023-05-19T07:54:56.005Z,16.80
2023-05-19T07:57:55.495Z,16.80
2023-05-19T08:04:12.574Z,17.30
2023-05-19T08:07:11.123Z,17.20
2023-05-19T08:17:53.310Z,17.50
2023-05-19T08:21:21.042Z,17.70
2023-05-19T08:27:29.011Z,17.80
2023-05-19T08:36:45.359Z,17.90
2023-05-19T08:39:56.998Z,18.00
2023-05-19T08:46:41.988Z,18.10
2023-05-19T08:57:02.547Z,18.30
2023-05-19T09:00:25.638Z,18.40
2023-05-19T09:27:00.438Z,18.70
2023-05-19T09:30:02.075Z,18.70
2023-05-19T09:36:24.058Z,18.70
2023-05-19T09:40:32.993Z,18.80
2023-05-19T09:44:14.725Z,18.80
2023-05-19T09:56:14.719Z,18.90
2023-05-19T10:02:36.861Z,19.00
2023-05-19T10:05:58.950Z,19.00
2023-05-19T10:08:58.187Z,19.00
2023-05-19T10:12:29.477Z,19.10
2023-05-19T10:15:40.762Z,19.00
2023-05-19T10:19:18.873Z,19.10
2023-05-19T10:22:46.070Z,19.10
2023-05-19T10:26:42.137Z,19.10
2023-05-19T10:33:25.590Z,19.20
2023-05-19T10:37:14.214Z,19.30
2023-05-19T10:40:26.511Z,19.30
2023-05-19T10:43:41.876Z,19.30
2023-05-19T10:53:57.884Z,19.20
2023-05-19T10:57:22.113Z,19.30
2023-05-19T11:03:57.557Z,19.30
2023-05-19T11:10:53.236Z,19.40
2023-05-19T11:21:14.262Z,19.50
2023-05-19T11:24:41.290Z,19.50
2023-05-19T11:31:46.244Z,19.60
2023-05-19T11:44:48.681Z,19.70
2023-05-19T11:48:03.145Z,19.80
2023-05-19T11:54:05.952Z,19.80
2023-05-19T11:54:55.475Z,19.80
2023-05-19T12:01:14.341Z,19.80
2023-05-19T12:04:15.938Z,19.90
2023-05-19T12:07:43.977Z,20.00
2023-05-19T12:13:43.646Z,20.00
2023-05-19T12:16:38.742Z,20.10
2023-05-19T12:19:34.538Z,20.10
2023-05-19T12:29:20.998Z,20.10
2023-05-19T12:35:46.740Z,20.20
2023-05-19T12:42:14.067Z,20.20
2023-05-19T12:45:41.803Z,20.20
2023-05-19T12:49:03.884Z,20.20
2023-05-19T12:55:20.341Z,20.30
2023-05-19T13:05:41.487Z,20.40
2023-05-19T13:12:06.214Z,20.50
2023-05-19T13:18:05.341Z,20.60
2023-05-19T13:21:00.487Z,20.60
2023-05-19T13:23:54.489Z,20.70
2023-05-19T13:33:46.005Z,20.70
2023-05-19T13:40:42.289Z,20.90
2023-05-19T13:43:53.006Z,20.90
2023-05-19T13:47:25.374Z,20.90
2023-05-19T13:50:18.538Z,21.00
2023-05-19T13:53:37.154Z,21.10
2023-05-19T13:56:56.429Z,21.10
2023-05-19T14:03:11.138Z,21.30
2023-05-19T14:06:28.786Z,21.30
2023-05-19T14:12:49.532Z,21.40
2023-05-19T14:15:48.112Z,21.50
2023-05-19T14:19:33.257Z,21.40
2023-05-19T14:22:12.560Z,21.40
2023-05-19T14:28:38.130Z,21.40
2023-05-19T14:44:25.454Z,21.30
2023-05-19T14:54:01.631Z,21.30
2023-05-19T14:56:56.633Z,21.20
2023-05-19T15:00:08.920Z,21.20
2023-05-19T15:09:50.332Z,21.20
2023-05-19T15:13:17.348Z,21.10
2023-05-19T15:16:36.312Z,21.10
2023-05-19T15:19:22.300Z,21.10
2023-05-19T15:22:23.236Z,21.10
2023-05-19T15:28:03.219Z,20.90
2023-05-19T15:31:12.326Z,20.90
2023-05-19T15:34:16.906Z,20.80
2023-05-19T15:37:07.673Z,20.80
2023-05-19T15:47:21.265Z,20.70
2023-05-19T15:50:45.747Z,20.60
2023-05-19T15:58:50.696Z,20.60
2023-05-19T16:07:57.058Z,20.50
2023-05-19T16:11:29.286Z,20.50
2023-05-19T16:14:56.612Z,20.50
2023-05-19T16:18:05.991Z,20.50
2023-05-19T16:27:55.100Z,20.40
2023-05-19T16:41:47.575Z,20.30
2023-05-19T17:09:58.865Z,20.00
2023-05-19T17:26:56.831Z,19.90
2023-05-19T17:47:52.325Z,19.50
2023-05-19T17:50:56.859Z,19.50
2023-05-19T17:57:35.356Z,19.40
2023-05-19T18:04:10.246Z,19.40
2023-05-19T18:06:49.752Z,19.60
2023-05-19T18:10:45.012Z,19.40
2023-05-19T18:14:10.270Z,19.40
2023-05-19T18:24:35.707Z,19.30
2023-05-19T18:28:00.905Z,19.50
2023-05-19T18:35:06.000Z,19.20
2023-05-19T18:50:04.270Z,19.10
2023-05-19T18:55:55.123Z,19.10
2023-05-19T19:00:03.970Z,19.10
2023-05-19T19:07:00.802Z,19.00
2023-05-19T19:20:23.512Z,18.80
2023-05-19T19:23:43.731Z,18.90
2023-05-19T19:26:48.950Z,18.80
2023-05-19T19:29:58.255Z,18.80
2023-05-19T19:36:18.823Z,18.70
2023-05-19T19:42:43.955Z,18.70
2023-05-19T19:46:06.281Z,18.70
2023-05-19T20:00:08.898Z,18.60
2023-05-19T20:13:12.659Z,18.50
2023-05-19T20:16:13.543Z,18.50
2023-05-19T20:19:44.099Z,18.50
2023-05-19T20:23:26.395Z,18.40
2023-05-19T20:30:37.247Z,18.30
2023-05-19T20:36:44.865Z,18.20
2023-05-19T20:47:44.404Z,18.20
2023-05-19T20:54:58.202Z,18.10
2023-05-19T21:06:22.059Z,18.00
2023-05-19T21:12:40.933Z,18.00
2023-05-19T21:19:03.207Z,18.00
2023-05-19T21:26:07.849Z,17.90
2023-05-19T21:43:55.467Z,17.80
2023-05-19T21:46:50.825Z,17.80
2023-05-19T21:50:35.861Z,17.60
2023-05-19T21:53:40.696Z,17.60
2023-05-19T21:56:54.836Z,17.50
2023-05-19T22:03:10.534Z,17.40
2023-05-19T22:06:24.812Z,17.40
2023-05-19T22:13:24.827Z,17.20
2023-05-19T22:46:29.200Z,17.10
2023-05-19T22:56:38.907Z,17.10
2023-05-19T23:03:44.168Z,17.00
2023-05-19T23:06:45.376Z,17.40
2023-05-19T23:16:33.388Z,17.00
2023-05-19T23:26:15.339Z,16.90
2023-05-19T23:32:06.315Z,16.80
2023-05-19T23:39:05.208Z,16.80
2023-05-19T23:42:22.008Z,16.80
2023-05-19T23:52:21.393Z,16.60
